Aviation Digital Data Service (ADDS)

Output produced by METARs form (1922 UTC 21 September 2021)
found at http://aviationweather.gov/metar/data/
 
KSNS 211853Z 31005KT 10SM CLR 29/12 A3005 RMK AO2 SLP185 T02940117
KSNS 211736Z 2118/2218 VRB04KT 6SM HZ FEW200 
     FM212100 31011KT 6SM HZ FEW200 
     FM220300 32008KT P6SM FEW007 
     FM220800 VRB02KT 3SM BR OVC005 
     FM221700 VRB04KT 6SM BR SCT005
       
KMRY 211854Z VRB05KT 10SM CLR 26/08 A3008 RMK AO2 SLP197 T02560078
KMRY 211736Z 2118/2218 27005KT 6SM HZ FEW200 
     FM212100 31009KT 6SM HZ FEW200 
     FM220200 VRB04KT P6SM FEW007 
     FM220900 VRB03KT 3SM BR OVC005 
     FM221700 VRB04KT 6SM BR BKN005
       
KSJC 211853Z 33006KT 10SM SCT030 OVC048 28/07 A3006 RMK AO2 SLP178 FU SCT030 FU OVC048 T02830067
KSJC 211736Z 2118/2218 VRB04KT P6SM FEW200 
     FM212100 32009KT 6SM HZ FEW200 
     FM220300 VRB04KT P6SM SKC
       
KRHV 211855Z 33003KT 10SM SKC 29/06 A3007
KSFO 211856Z 07003KT 10SM CLR 24/15 A3007 RMK AO2 SLP182 T02390150
KSFO 211736Z 2118/2224 VRB04KT P6SM FEW045 FEW200 
     FM212200 29012KT 6SM HZ FEW200 
     FM220300 30008KT P6SM FEW200 
     FM221000 VRB05KT P6SM FEW011 
     FM222100 29012KT P6SM FEW200
       
KLVK 211853Z 04007KT 010V080 10SM CLR 31/05 A3007 RMK AO2 SLP177 T03110050
KLVK 211736Z 2118/2218 VRB05KT P6SM SKC 
     FM212100 29009KT 6SM HZ FEW200 
     FM220600 VRB05KT P6SM FEW200
       
KMCE 211853Z AUTO VRB03KT 10SM CLR 30/09 A3008 RMK AO2 SLP186 T03000094
KMCE 211720Z 2118/2218 VRB05KT P6SM SKC 
     TEMPO 2118/2122 5SM HZ FU SCT090